sensor_id;sensor_type;location;lat;lon;timestamp;temperature;humidity
57088;DHT22;42965;52.846;6.614;2023-05-10T00:01:06;12.90;99.90
57088;DHT22;42965;52.846;6.614;2023-05-10T00:03:33;12.90;99.90
57088;DHT22;42965;52.846;6.614;2023-05-10T00:05:59;12.90;99.90
57088;DHT22;42965;52.846;6.614;2023-05-10T00:08:26;12.90;99.90
57088;DHT22;42965;52.846;6.614;2023-05-10T00:10:53;12.90;99.90
57088;DHT22;42965;52.846;6.614;2023-05-10T00:13:19;12.90;99.90
57088;DHT22;42965;52.846;6.614;2023-05-10T00:15:45;12.90;99.90
57088;DHT22;42965;52.846;6.614;2023-05-10T00:18:15;12.90;99.90
57088;DHT22;42965;52.846;6.614;2023-05-10T00:20:41;12.90;99.90
57088;DHT22;42965;52.846;6.614;2023-05-10T00:23:07;12.90;99.90
57088;DHT22;42965;52.846;6.614;2023-05-10T00:25:33;12.90;99.90
57088;DHT22;42965;52.846;6.614;2023-05-10T00:28:00;12.90;99.90
57088;DHT22;42965;52.846;6.614;2023-05-10T00:30:28;12.80;99.90
57088;DHT22;42965;52.846;6.614;2023-05-10T00:33:09;12.80;99.90
57088;DHT22;42965;52.846;6.614;2023-05-10T00:35:37;12.80;99.90
57088;DHT22;42965;52.846;6.614;2023-05-10T00:38:07;12.80;99.90
57088;DHT22;42965;52.846;6.614;2023-05-10T00:40:35;12.80;99.90
57088;DHT22;42965;52.846;6.614;2023-05-10T00:43:05;12.80;99.90
57088;DHT22;42965;52.846;6.614;2023-05-10T00:45:33;12.80;99.90
57088;DHT22;42965;52.846;6.614;2023-05-10T00:48:01;12.80;99.90
57088;DHT22;42965;52.846;6.614;2023-05-10T00:50:33;12.80;99.90
57088;DHT22;42965;52.846;6.614;2023-05-10T00:53:01;12.80;99.90
57088;DHT22;42965;52.846;6.614;2023-05-10T00:55:28;12.80;99.90
57088;DHT22;42965;52.846;6.614;2023-05-10T00:57:54;12.70;99.90
57088;DHT22;42965;52.846;6.614;2023-05-10T01:00:21;12.80;99.90
57088;DHT22;42965;52.846;6.614;2023-05-10T01:02:48;12.80;99.90
57088;DHT22;42965;52.846;6.614;2023-05-10T01:05:26;12.70;99.90
57088;DHT22;42965;52.846;6.614;2023-05-10T01:07:53;12.80;99.90
57088;DHT22;42965;52.846;6.614;2023-05-10T01:10:21;12.80;99.90
57088;DHT22;42965;52.846;6.614;2023-05-10T01:12:47;12.70;99.90
57088;DHT22;42965;52.846;6.614;2023-05-10T01:15:16;12.70;99.90
57088;DHT22;42965;52.846;6.614;2023-05-10T01:17:46;12.70;99.90
57088;DHT22;42965;52.846;6.614;2023-05-10T01:20:14;12.70;99.90
57088;DHT22;42965;52.846;6.614;2023-05-10T01:36:32;12.60;99.90
57088;DHT22;42965;52.846;6.614;2023-05-10T01:39:13;12.60;99.90
57088;DHT22;42965;52.846;6.614;2023-05-10T01:44:40;12.60;99.90
57088;DHT22;42965;52.846;6.614;2023-05-10T01:47:12;12.60;99.90
57088;DHT22;42965;52.846;6.614;2023-05-10T01:49:52;12.60;99.90
57088;DHT22;42965;52.846;6.614;2023-05-10T01:52:22;12.70;99.90
57088;DHT22;42965;52.846;6.614;2023-05-10T01:55:00;12.70;99.90
57088;DHT22;42965;52.846;6.614;2023-05-10T01:57:37;12.60;99.90
57088;DHT22;42965;52.846;6.614;2023-05-10T02:00:07;12.60;99.90
57088;DHT22;42965;52.846;6.614;2023-05-10T02:02:46;12.60;99.90
57088;DHT22;42965;52.846;6.614;2023-05-10T02:05:14;12.60;99.90
57088;DHT22;42965;52.846;6.614;2023-05-10T02:07:42;12.60;99.90
57088;DHT22;42965;52.846;6.614;2023-05-10T02:10:10;12.60;99.90
57088;DHT22;42965;52.846;6.614;2023-05-10T02:12:42;12.50;99.90
57088;DHT22;42965;52.846;6.614;2023-05-10T02:15:20;12.50;99.90
57088;DHT22;42965;52.846;6.614;2023-05-10T02:17:48;12.50;99.90
57088;DHT22;42965;52.846;6.614;2023-05-10T02:20:16;12.60;99.90
57088;DHT22;42965;52.846;6.614;2023-05-10T02:22:45;12.50;99.90
57088;DHT22;42965;52.846;6.614;2023-05-10T02:25:14;12.60;99.90
57088;DHT22;42965;52.846;6.614;2023-05-10T02:27:42;12.50;99.90
57088;DHT22;42965;52.846;6.614;2023-05-10T02:30:10;12.50;99.90
57088;DHT22;42965;52.846;6.614;2023-05-10T02:32:38;12.60;99.90
57088;DHT22;42965;52.846;6.614;2023-05-10T02:35:05;12.50;99.90
57088;DHT22;42965;52.846;6.614;2023-05-10T02:37:33;12.50;99.90
57088;DHT22;42965;52.846;6.614;2023-05-10T02:40:03;12.50;99.90
57088;DHT22;42965;52.846;6.614;2023-05-10T02:42:33;12.50;99.90
57088;DHT22;42965;52.846;6.614;2023-05-10T02:45:03;12.50;99.90
57088;DHT22;42965;52.846;6.614;2023-05-10T02:47:36;12.50;99.90
57088;DHT22;42965;52.846;6.614;2023-05-10T02:50:02;12.50;99.90
57088;DHT22;42965;52.846;6.614;2023-05-10T02:52:40;12.50;99.90
57088;DHT22;42965;52.846;6.614;2023-05-10T02:55:09;12.50;99.90
57088;DHT22;42965;52.846;6.614;2023-05-10T02:57:42;12.50;99.90
57088;DHT22;42965;52.846;6.614;2023-05-10T03:00:09;12.50;99.90
57088;DHT22;42965;52.846;6.614;2023-05-10T03:02:36;12.50;99.90
57088;DHT22;42965;52.846;6.614;2023-05-10T03:05:02;12.50;99.90
57088;DHT22;42965;52.846;6.614;2023-05-10T03:07:29;12.40;99.90
57088;DHT22;42965;52.846;6.614;2023-05-10T03:09:56;12.50;99.90
57088;DHT22;42965;52.846;6.614;2023-05-10T03:15:19;12.50;99.90
57088;DHT22;42965;52.846;6.614;2023-05-10T03:18:04;12.50;99.90
57088;DHT22;42965;52.846;6.614;2023-05-10T03:20:38;12.50;99.90
57088;DHT22;42965;52.846;6.614;2023-05-10T03:23:21;12.40;99.90
57088;DHT22;42965;52.846;6.614;2023-05-10T03:25:50;12.40;99.90
57088;DHT22;42965;52.846;6.614;2023-05-10T03:28:18;12.40;99.90
57088;DHT22;42965;52.846;6.614;2023-05-10T03:30:47;12.40;99.90
57088;DHT22;42965;52.846;6.614;2023-05-10T03:33:14;12.40;99.90
57088;DHT22;42965;52.846;6.614;2023-05-10T03:35:44;12.40;99.90
57088;DHT22;42965;52.846;6.614;2023-05-10T03:38:14;12.40;99.90
57088;DHT22;42965;52.846;6.614;2023-05-10T03:40:41;12.40;99.90
57088;DHT22;42965;52.846;6.614;2023-05-10T03:43:08;12.40;99.90
57088;DHT22;42965;52.846;6.614;2023-05-10T03:45:34;12.40;99.90
57088;DHT22;42965;52.846;6.614;2023-05-10T03:48:00;12.40;99.90
57088;DHT22;42965;52.846;6.614;2023-05-10T03:50:27;12.40;99.90
57088;DHT22;42965;52.846;6.614;2023-05-10T03:52:53;12.30;99.90
57088;DHT22;42965;52.846;6.614;2023-05-10T03:55:19;12.30;99.90
57088;DHT22;42965;52.846;6.614;2023-05-10T03:57:46;12.40;99.90
57088;DHT22;42965;52.846;6.614;2023-05-10T04:00:15;12.30;99.90
57088;DHT22;42965;52.846;6.614;2023-05-10T04:02:45;12.30;99.90
57088;DHT22;42965;52.846;6.614;2023-05-10T04:05:17;12.30;99.90
57088;DHT22;42965;52.846;6.614;2023-05-10T04:07:44;12.30;99.90
57088;DHT22;42965;52.846;6.614;2023-05-10T04:10:11;12.30;99.90
57088;DHT22;42965;52.846;6.614;2023-05-10T04:12:37;12.30;99.90
57088;DHT22;42965;52.846;6.614;2023-05-10T04:15:04;12.30;99.90
57088;DHT22;42965;52.846;6.614;2023-05-10T04:17:31;12.30;99.90
57088;DHT22;42965;52.846;6.614;2023-05-10T04:19:58;12.40;99.90
57088;DHT22;42965;52.846;6.614;2023-05-10T04:22:24;12.30;99.90
57088;DHT22;42965;52.846;6.614;2023-05-10T04:24:53;12.30;99.90
57088;DHT22;42965;52.846;6.614;2023-05-10T04:27:20;12.40;99.90
57088;DHT22;42965;52.846;6.614;2023-05-10T04:29:46;12.40;99.90
57088;DHT22;42965;52.846;6.614;2023-05-10T04:32:13;12.40;99.90
57088;DHT22;42965;52.846;6.614;2023-05-10T04:34:39;12.40;99.90
57088;DHT22;42965;52.846;6.614;2023-05-10T04:37:05;12.40;99.90
57088;DHT22;42965;52.846;6.614;2023-05-10T04:39:33;12.40;99.90
57088;DHT22;42965;52.846;6.614;2023-05-10T04:41:59;12.40;99.90
57088;DHT22;42965;52.846;6.614;2023-05-10T04:44:25;12.50;99.90
57088;DHT22;42965;52.846;6.614;2023-05-10T04:46:51;12.40;99.90
57088;DHT22;42965;52.846;6.614;2023-05-10T04:49:18;12.40;99.90
57088;DHT22;42965;52.846;6.614;2023-05-10T04:51:44;12.40;99.90
57088;DHT22;42965;52.846;6.614;2023-05-10T04:54:30;12.40;99.90
57088;DHT22;42965;52.846;6.614;2023-05-10T04:57:17;12.40;99.90
57088;DHT22;42965;52.846;6.614;2023-05-10T05:00:03;12.40;99.90
57088;DHT22;42965;52.846;6.614;2023-05-10T05:02:50;12.50;99.90
57088;DHT22;42965;52.846;6.614;2023-05-10T05:05:37;12.40;99.90
57088;DHT22;42965;52.846;6.614;2023-05-10T05:08:23;12.50;99.90
57088;DHT22;42965;52.846;6.614;2023-05-10T05:11:10;12.50;99.90
57088;DHT22;42965;52.846;6.614;2023-05-10T05:13:36;12.60;99.90
57088;DHT22;42965;52.846;6.614;2023-05-10T05:16:03;12.60;99.90
57088;DHT22;42965;52.846;6.614;2023-05-10T05:18:30;12.60;99.90
57088;DHT22;42965;52.846;6.614;2023-05-10T05:20:57;12.60;99.90
57088;DHT22;42965;52.846;6.614;2023-05-10T05:23:24;12.70;99.90
57088;DHT22;42965;52.846;6.614;2023-05-10T05:25:54;12.70;99.90
57088;DHT22;42965;52.846;6.614;2023-05-10T05:28:21;12.70;99.90
57088;DHT22;42965;52.846;6.614;2023-05-10T05:30:47;12.80;99.90
57088;DHT22;42965;52.846;6.614;2023-05-10T05:33:14;12.80;99.90
57088;DHT22;42965;52.846;6.614;2023-05-10T05:35:43;12.80;99.90
57088;DHT22;42965;52.846;6.614;2023-05-10T05:38:13;12.80;99.90
57088;DHT22;42965;52.846;6.614;2023-05-10T05:40:40;12.80;99.90
57088;DHT22;42965;52.846;6.614;2023-05-10T05:43:06;12.80;99.90
57088;DHT22;42965;52.846;6.614;2023-05-10T05:45:32;12.80;99.90
57088;DHT22;42965;52.846;6.614;2023-05-10T05:47:59;12.80;99.90
57088;DHT22;42965;52.846;6.614;2023-05-10T05:50:25;12.80;99.90
57088;DHT22;42965;52.846;6.614;2023-05-10T05:52:52;12.70;99.90
57088;DHT22;42965;52.846;6.614;2023-05-10T05:55:18;12.70;99.90
57088;DHT22;42965;52.846;6.614;2023-05-10T05:57:45;12.70;99.90
57088;DHT22;42965;52.846;6.614;2023-05-10T06:00:12;12.70;99.90
57088;DHT22;42965;52.846;6.614;2023-05-10T06:02:41;12.60;99.90
57088;DHT22;42965;52.846;6.614;2023-05-10T06:05:08;12.60;99.90
57088;DHT22;42965;52.846;6.614;2023-05-10T06:07:38;12.60;99.90
57088;DHT22;42965;52.846;6.614;2023-05-10T06:10:07;12.60;99.90
57088;DHT22;42965;52.846;6.614;2023-05-10T06:12:34;12.60;99.90
57088;DHT22;42965;52.846;6.614;2023-05-10T06:15:01;12.60;99.90
57088;DHT22;42965;52.846;6.614;2023-05-10T06:17:28;12.50;99.90
57088;DHT22;42965;52.846;6.614;2023-05-10T06:19:55;12.70;99.90
57088;DHT22;42965;52.846;6.614;2023-05-10T06:22:22;12.70;99.90
57088;DHT22;42965;52.846;6.614;2023-05-10T06:24:49;12.70;99.90
57088;DHT22;42965;52.846;6.614;2023-05-10T06:27:15;12.60;99.90
57088;DHT22;42965;52.846;6.614;2023-05-10T06:29:42;12.60;99.90
57088;DHT22;42965;52.846;6.614;2023-05-10T06:32:09;12.70;99.90
57088;DHT22;42965;52.846;6.614;2023-05-10T06:34:38;12.70;99.90
57088;DHT22;42965;52.846;6.614;2023-05-10T06:37:04;12.70;99.90
57088;DHT22;42965;52.846;6.614;2023-05-10T06:39:31;12.70;99.90
57088;DHT22;42965;52.846;6.614;2023-05-10T06:41:57;12.70;99.90
57088;DHT22;42965;52.846;6.614;2023-05-10T06:44:28;12.70;99.90
57088;DHT22;42965;52.846;6.614;2023-05-10T06:46:55;12.80;99.90
57088;DHT22;42965;52.846;6.614;2023-05-10T06:49:22;12.80;99.90
57088;DHT22;42965;52.846;6.614;2023-05-10T06:51:48;12.80;99.90
57088;DHT22;42965;52.846;6.614;2023-05-10T06:54:15;12.80;99.90
57088;DHT22;42965;52.846;6.614;2023-05-10T06:56:41;12.80;99.90
57088;DHT22;42965;52.846;6.614;2023-05-10T06:59:08;12.90;99.90
57088;DHT22;42965;52.846;6.614;2023-05-10T07:01:35;12.90;99.90
57088;DHT22;42965;52.846;6.614;2023-05-10T07:04:01;12.90;99.90
57088;DHT22;42965;52.846;6.614;2023-05-10T07:06:28;13.00;99.90
57088;DHT22;42965;52.846;6.614;2023-05-10T07:08:55;13.10;99.90
57088;DHT22;42965;52.846;6.614;2023-05-10T07:11:21;13.10;99.90
57088;DHT22;42965;52.846;6.614;2023-05-10T07:13:48;13.20;99.90
57088;DHT22;42965;52.846;6.614;2023-05-10T07:16:14;13.20;99.90
57088;DHT22;42965;52.846;6.614;2023-05-10T07:18:41;13.20;99.90
57088;DHT22;42965;52.846;6.614;2023-05-10T07:21:07;13.30;99.90
57088;DHT22;42965;52.846;6.614;2023-05-10T07:23:34;13.40;99.90
57088;DHT22;42965;52.846;6.614;2023-05-10T07:26:01;13.40;99.90
57088;DHT22;42965;52.846;6.614;2023-05-10T07:28:28;13.40;99.90
57088;DHT22;42965;52.846;6.614;2023-05-10T07:30:55;13.40;99.90
57088;DHT22;42965;52.846;6.614;2023-05-10T07:33:21;13.40;99.90
57088;DHT22;42965;52.846;6.614;2023-05-10T07:35:50;13.40;99.90
57088;DHT22;42965;52.846;6.614;2023-05-10T07:38:17;13.40;99.90
57088;DHT22;42965;52.846;6.614;2023-05-10T07:40:43;13.40;99.90
57088;DHT22;42965;52.846;6.614;2023-05-10T07:43:10;13.40;99.90
57088;DHT22;42965;52.846;6.614;2023-05-10T07:45:39;13.30;99.90
57088;DHT22;42965;52.846;6.614;2023-05-10T07:48:05;13.30;99.90
57088;DHT22;42965;52.846;6.614;2023-05-10T07:50:32;13.40;99.90
57088;DHT22;42965;52.846;6.614;2023-05-10T07:52:58;13.40;99.90
57088;DHT22;42965;52.846;6.614;2023-05-10T07:55:25;13.30;99.90
57088;DHT22;42965;52.846;6.614;2023-05-10T07:57:52;13.30;99.90
57088;DHT22;42965;52.846;6.614;2023-05-10T08:00:19;13.30;99.90
57088;DHT22;42965;52.846;6.614;2023-05-10T08:02:46;13.30;99.90
57088;DHT22;42965;52.846;6.614;2023-05-10T08:05:13;13.30;99.90
57088;DHT22;42965;52.846;6.614;2023-05-10T08:07:40;13.30;99.90
57088;DHT22;42965;52.846;6.614;2023-05-10T08:10:07;13.30;99.90
57088;DHT22;42965;52.846;6.614;2023-05-10T08:12:35;13.40;99.90
57088;DHT22;42965;52.846;6.614;2023-05-10T08:15:01;13.40;99.90
57088;DHT22;42965;52.846;6.614;2023-05-10T08:17:28;13.60;99.90
57088;DHT22;42965;52.846;6.614;2023-05-10T08:19:54;13.90;99.90
57088;DHT22;42965;52.846;6.614;2023-05-10T08:22:20;14.00;99.90
57088;DHT22;42965;52.846;6.614;2023-05-10T08:24:48;14.00;99.90
57088;DHT22;42965;52.846;6.614;2023-05-10T08:27:14;14.00;99.90
57088;DHT22;42965;52.846;6.614;2023-05-10T08:29:41;14.00;99.90
57088;DHT22;42965;52.846;6.614;2023-05-10T08:32:07;14.10;99.90
57088;DHT22;42965;52.846;6.614;2023-05-10T08:34:33;14.10;99.90
57088;DHT22;42965;52.846;6.614;2023-05-10T08:36:59;14.00;99.90
57088;DHT22;42965;52.846;6.614;2023-05-10T08:39:26;14.00;99.90
57088;DHT22;42965;52.846;6.614;2023-05-10T08:41:53;13.90;99.90
57088;DHT22;42965;52.846;6.614;2023-05-10T08:44:20;13.90;99.90
57088;DHT22;42965;52.846;6.614;2023-05-10T08:46:51;13.90;99.90
57088;DHT22;42965;52.846;6.614;2023-05-10T08:49:20;13.90;99.90
57088;DHT22;42965;52.846;6.614;2023-05-10T08:51:52;13.90;99.90
57088;DHT22;42965;52.846;6.614;2023-05-10T08:54:19;13.90;99.90
57088;DHT22;42965;52.846;6.614;2023-05-10T08:56:47;13.90;99.90
57088;DHT22;42965;52.846;6.614;2023-05-10T08:59:13;14.00;99.90
57088;DHT22;42965;52.846;6.614;2023-05-10T09:01:45;14.00;99.90
57088;DHT22;42965;52.846;6.614;2023-05-10T09:04:15;14.00;99.90
57088;DHT22;42965;52.846;6.614;2023-05-10T09:06:44;13.90;99.90
57088;DHT22;42965;52.846;6.614;2023-05-10T09:09:11;14.00;99.90
57088;DHT22;42965;52.846;6.614;2023-05-10T09:11:38;14.00;99.90
57088;DHT22;42965;52.846;6.614;2023-05-10T09:14:04;14.00;99.90
57088;DHT22;42965;52.846;6.614;2023-05-10T09:16:30;14.10;99.90
57088;DHT22;42965;52.846;6.614;2023-05-10T09:18:57;14.10;99.90
57088;DHT22;42965;52.846;6.614;2023-05-10T09:21:23;14.00;99.90
57088;DHT22;42965;52.846;6.614;2023-05-10T09:23:49;14.00;99.90
57088;DHT22;42965;52.846;6.614;2023-05-10T09:26:23;14.10;99.90
57088;DHT22;42965;52.846;6.614;2023-05-10T09:28:55;14.10;99.90
57088;DHT22;42965;52.846;6.614;2023-05-10T09:31:22;14.00;99.90
57088;DHT22;42965;52.846;6.614;2023-05-10T09:33:50;14.00;99.90
57088;DHT22;42965;52.846;6.614;2023-05-10T09:36:17;14.00;99.90
57088;DHT22;42965;52.846;6.614;2023-05-10T09:38:49;14.00;99.90
57088;DHT22;42965;52.846;6.614;2023-05-10T09:41:18;14.20;99.90
57088;DHT22;42965;52.846;6.614;2023-05-10T09:43:45;14.20;99.90
57088;DHT22;42965;52.846;6.614;2023-05-10T09:46:11;14.30;99.90
57088;DHT22;42965;52.846;6.614;2023-05-10T09:48:46;14.50;99.90
57088;DHT22;42965;52.846;6.614;2023-05-10T09:51:24;14.70;99.90
57088;DHT22;42965;52.846;6.614;2023-05-10T09:56:36;15.20;99.90
57088;DHT22;42965;52.846;6.614;2023-05-10T09:59:10;15.40;99.90
57088;DHT22;42965;52.846;6.614;2023-05-10T10:01:37;15.40;99.90
57088;DHT22;42965;52.846;6.614;2023-05-10T10:04:05;15.70;99.90
57088;DHT22;42965;52.846;6.614;2023-05-10T10:06:39;15.90;99.90
57088;DHT22;42965;52.846;6.614;2023-05-10T10:09:06;15.80;99.90
57088;DHT22;42965;52.846;6.614;2023-05-10T10:11:37;15.90;99.90
57088;DHT22;42965;52.846;6.614;2023-05-10T10:14:04;15.70;99.90
57088;DHT22;42965;52.846;6.614;2023-05-10T10:16:31;15.60;99.90
57088;DHT22;42965;52.846;6.614;2023-05-10T10:18:58;15.50;99.90
57088;DHT22;42965;52.846;6.614;2023-05-10T10:21:24;15.30;99.90
57088;DHT22;42965;52.846;6.614;2023-05-10T10:23:51;15.30;99.90
57088;DHT22;42965;52.846;6.614;2023-05-10T10:26:19;15.20;99.90
57088;DHT22;42965;52.846;6.614;2023-05-10T10:29:26;15.10;99.90
57088;DHT22;42965;52.846;6.614;2023-05-10T10:32:12;15.10;99.90
57088;DHT22;42965;52.846;6.614;2023-05-10T10:34:44;15.10;99.90
57088;DHT22;42965;52.846;6.614;2023-05-10T10:37:10;15.20;99.90
57088;DHT22;42965;52.846;6.614;2023-05-10T10:39:36;15.30;99.90
57088;DHT22;42965;52.846;6.614;2023-05-10T10:42:04;15.30;99.90
57088;DHT22;42965;52.846;6.614;2023-05-10T10:52:25;15.60;99.90
57088;DHT22;42965;52.846;6.614;2023-05-10T10:54:58;15.70;99.90
57088;DHT22;42965;52.846;6.614;2023-05-10T10:57:24;15.80;99.90
57088;DHT22;42965;52.846;6.614;2023-05-10T11:00:17;15.80;99.90
57088;DHT22;42965;52.846;6.614;2023-05-10T11:10:37;15.80;99.90
57088;DHT22;42965;52.846;6.614;2023-05-10T11:13:06;15.80;99.90
57088;DHT22;42965;52.846;6.614;2023-05-10T11:18:15;15.80;99.90
57088;DHT22;42965;52.846;6.614;2023-05-10T11:20:42;15.80;99.90
57088;DHT22;42965;52.846;6.614;2023-05-10T11:23:13;15.70;99.90
57088;DHT22;42965;52.846;6.614;2023-05-10T11:25:42;15.80;99.90
57088;DHT22;42965;52.846;6.614;2023-05-10T11:28:13;15.80;99.90
57088;DHT22;42965;52.846;6.614;2023-05-10T11:30:40;15.70;99.90
57088;DHT22;42965;52.846;6.614;2023-05-10T11:33:08;15.80;99.90
57088;DHT22;42965;52.846;6.614;2023-05-10T11:35:38;15.70;99.90
57088;DHT22;42965;52.846;6.614;2023-05-10T11:38:06;15.70;99.90
57088;DHT22;42965;52.846;6.614;2023-05-10T11:40:37;15.80;99.90
57088;DHT22;42965;52.846;6.614;2023-05-10T11:43:03;15.80;99.90
57088;DHT22;42965;52.846;6.614;2023-05-10T11:45:33;16.00;99.90
57088;DHT22;42965;52.846;6.614;2023-05-10T11:48:01;15.90;99.90
57088;DHT22;42965;52.846;6.614;2023-05-10T11:50:28;15.90;99.90
57088;DHT22;42965;52.846;6.614;2023-05-10T11:52:57;16.00;99.90
57088;DHT22;42965;52.846;6.614;2023-05-10T11:55:24;15.90;99.90
57088;DHT22;42965;52.846;6.614;2023-05-10T11:57:54;16.00;99.90
57088;DHT22;42965;52.846;6.614;2023-05-10T12:00:21;16.10;99.90
57088;DHT22;42965;52.846;6.614;2023-05-10T12:02:48;16.10;99.90
57088;DHT22;42965;52.846;6.614;2023-05-10T12:05:15;16.20;99.90
57088;DHT22;42965;52.846;6.614;2023-05-10T12:07:41;16.20;99.90
57088;DHT22;42965;52.846;6.614;2023-05-10T12:10:12;16.20;99.90
57088;DHT22;42965;52.846;6.614;2023-05-10T12:12:45;16.20;99.90
57088;DHT22;42965;52.846;6.614;2023-05-10T12:15:22;16.40;99.90
57088;DHT22;42965;52.846;6.614;2023-05-10T12:17:49;16.50;99.90
57088;DHT22;42965;52.846;6.614;2023-05-10T12:20:21;16.50;99.90
57088;DHT22;42965;52.846;6.614;2023-05-10T12:22:51;16.50;99.90
57088;DHT22;42965;52.846;6.614;2023-05-10T12:25:19;16.30;99.90
57088;DHT22;42965;52.846;6.614;2023-05-10T12:27:54;16.30;99.90
57088;DHT22;42965;52.846;6.614;2023-05-10T12:30:29;16.10;99.90
57088;DHT22;42965;52.846;6.614;2023-05-10T12:33:08;16.10;99.90
57088;DHT22;42965;52.846;6.614;2023-05-10T12:35:47;16.10;99.90
57088;DHT22;42965;52.846;6.614;2023-05-10T12:38:33;16.10;99.90
57088;DHT22;42965;52.846;6.614;2023-05-10T12:41:02;16.10;99.90
57088;DHT22;42965;52.846;6.614;2023-05-10T12:43:29;16.10;99.90
57088;DHT22;42965;52.846;6.614;2023-05-10T12:45:56;16.00;99.90
57088;DHT22;42965;52.846;6.614;2023-05-10T12:48:23;16.00;99.90
57088;DHT22;42965;52.846;6.614;2023-05-10T12:50:49;16.00;99.90
57088;DHT22;42965;52.846;6.614;2023-05-10T12:53:16;16.00;99.90
57088;DHT22;42965;52.846;6.614;2023-05-10T12:55:43;16.00;99.90
57088;DHT22;42965;52.846;6.614;2023-05-10T12:58:10;16.10;99.90
57088;DHT22;42965;52.846;6.614;2023-05-10T13:00:36;16.20;99.90
57088;DHT22;42965;52.846;6.614;2023-05-10T13:03:04;16.10;99.90
57088;DHT22;42965;52.846;6.614;2023-05-10T13:05:32;16.00;99.90
57088;DHT22;42965;52.846;6.614;2023-05-10T13:07:59;16.00;99.90
57088;DHT22;42965;52.846;6.614;2023-05-10T13:10:26;15.80;99.90
57088;DHT22;42965;52.846;6.614;2023-05-10T13:12:52;15.90;99.90
57088;DHT22;42965;52.846;6.614;2023-05-10T13:15:18;15.80;99.90
57088;DHT22;42965;52.846;6.614;2023-05-10T13:17:45;15.70;99.90
57088;DHT22;42965;52.846;6.614;2023-05-10T13:20:11;15.60;99.90
57088;DHT22;42965;52.846;6.614;2023-05-10T13:22:37;15.60;99.90
57088;DHT22;42965;52.846;6.614;2023-05-10T13:25:04;15.50;99.90
57088;DHT22;42965;52.846;6.614;2023-05-10T13:27:30;15.40;99.90
57088;DHT22;42965;52.846;6.614;2023-05-10T13:29:57;15.30;99.90
57088;DHT22;42965;52.846;6.614;2023-05-10T13:32:26;15.20;99.90
57088;DHT22;42965;52.846;6.614;2023-05-10T13:34:52;15.30;99.90
57088;DHT22;42965;52.846;6.614;2023-05-10T13:37:19;15.30;99.90
57088;DHT22;42965;52.846;6.614;2023-05-10T13:39:45;15.30;99.90
57088;DHT22;42965;52.846;6.614;2023-05-10T13:42:13;15.30;99.90
57088;DHT22;42965;52.846;6.614;2023-05-10T13:44:40;15.20;99.90
57088;DHT22;42965;52.846;6.614;2023-05-10T13:47:06;15.30;99.90
57088;DHT22;42965;52.846;6.614;2023-05-10T13:49:32;15.20;99.90
57088;DHT22;42965;52.846;6.614;2023-05-10T13:52:00;15.20;99.90
57088;DHT22;42965;52.846;6.614;2023-05-10T13:54:36;15.20;99.90
57088;DHT22;42965;52.846;6.614;2023-05-10T13:57:04;15.30;99.90
57088;DHT22;42965;52.846;6.614;2023-05-10T13:59:31;15.30;99.90
57088;DHT22;42965;52.846;6.614;2023-05-10T14:01:58;15.40;99.90
57088;DHT22;42965;52.846;6.614;2023-05-10T14:04:24;15.50;99.90
57088;DHT22;42965;52.846;6.614;2023-05-10T14:06:51;15.60;99.90
57088;DHT22;42965;52.846;6.614;2023-05-10T14:09:19;15.70;99.90
57088;DHT22;42965;52.846;6.614;2023-05-10T14:11:45;15.80;99.90
57088;DHT22;42965;52.846;6.614;2023-05-10T14:14:12;15.90;99.90
57088;DHT22;42965;52.846;6.614;2023-05-10T14:16:44;16.00;99.90
57088;DHT22;42965;52.846;6.614;2023-05-10T14:19:11;16.20;99.90
57088;DHT22;42965;52.846;6.614;2023-05-10T14:21:38;16.40;99.90
57088;DHT22;42965;52.846;6.614;2023-05-10T14:24:04;16.30;99.90
57088;DHT22;42965;52.846;6.614;2023-05-10T14:26:33;16.50;99.90
57088;DHT22;42965;52.846;6.614;2023-05-10T14:29:00;16.60;99.90
57088;DHT22;42965;52.846;6.614;2023-05-10T14:31:27;16.80;99.90
57088;DHT22;42965;52.846;6.614;2023-05-10T14:33:54;16.60;99.90
57088;DHT22;42965;52.846;6.614;2023-05-10T14:36:20;16.70;99.90
57088;DHT22;42965;52.846;6.614;2023-05-10T14:38:47;16.60;99.90
57088;DHT22;42965;52.846;6.614;2023-05-10T14:41:13;16.70;99.90
57088;DHT22;42965;52.846;6.614;2023-05-10T14:43:41;16.70;99.90
57088;DHT22;42965;52.846;6.614;2023-05-10T14:46:07;16.80;99.90
57088;DHT22;42965;52.846;6.614;2023-05-10T14:48:34;16.70;99.90
57088;DHT22;42965;52.846;6.614;2023-05-10T14:51:01;16.70;99.90
57088;DHT22;42965;52.846;6.614;2023-05-10T14:53:27;16.60;99.90
57088;DHT22;42965;52.846;6.614;2023-05-10T14:55:54;16.70;99.90
57088;DHT22;42965;52.846;6.614;2023-05-10T14:58:20;16.50;99.90
57088;DHT22;42965;52.846;6.614;2023-05-10T15:00:47;16.50;99.90
57088;DHT22;42965;52.846;6.614;2023-05-10T15:03:13;16.40;99.90
57088;DHT22;42965;52.846;6.614;2023-05-10T15:05:40;16.50;99.90
57088;DHT22;42965;52.846;6.614;2023-05-10T15:08:06;16.40;99.90
57088;DHT22;42965;52.846;6.614;2023-05-10T15:10:32;16.50;99.90
57088;DHT22;42965;52.846;6.614;2023-05-10T15:12:59;16.40;99.90
57088;DHT22;42965;52.846;6.614;2023-05-10T15:15:25;16.40;99.90
57088;DHT22;42965;52.846;6.614;2023-05-10T15:17:52;16.30;99.90
57088;DHT22;42965;52.846;6.614;2023-05-10T15:20:18;16.40;99.90
57088;DHT22;42965;52.846;6.614;2023-05-10T15:22:44;16.30;99.90
57088;DHT22;42965;52.846;6.614;2023-05-10T15:25:10;16.30;99.90
57088;DHT22;42965;52.846;6.614;2023-05-10T15:27:37;16.30;99.90
57088;DHT22;42965;52.846;6.614;2023-05-10T15:30:03;16.30;99.90
57088;DHT22;42965;52.846;6.614;2023-05-10T15:32:30;16.30;99.90
57088;DHT22;42965;52.846;6.614;2023-05-10T15:34:57;16.40;99.90
57088;DHT22;42965;52.846;6.614;2023-05-10T15:37:23;16.30;99.90
57088;DHT22;42965;52.846;6.614;2023-05-10T15:39:50;16.40;99.90
57088;DHT22;42965;52.846;6.614;2023-05-10T15:42:16;16.30;99.90
57088;DHT22;42965;52.846;6.614;2023-05-10T15:44:43;16.40;99.90
57088;DHT22;42965;52.846;6.614;2023-05-10T15:47:10;16.40;99.90
57088;DHT22;42965;52.846;6.614;2023-05-10T15:49:36;16.40;99.90
57088;DHT22;42965;52.846;6.614;2023-05-10T15:52:02;16.40;99.90
57088;DHT22;42965;52.846;6.614;2023-05-10T15:54:29;16.40;99.90
57088;DHT22;42965;52.846;6.614;2023-05-10T15:56:55;16.40;99.90
57088;DHT22;42965;52.846;6.614;2023-05-10T15:59:22;16.40;99.90
57088;DHT22;42965;52.846;6.614;2023-05-10T16:01:48;16.40;99.90
57088;DHT22;42965;52.846;6.614;2023-05-10T16:04:15;16.30;99.90
57088;DHT22;42965;52.846;6.614;2023-05-10T16:06:41;16.30;99.90
57088;DHT22;42965;52.846;6.614;2023-05-10T16:09:07;16.30;99.90
57088;DHT22;42965;52.846;6.614;2023-05-10T16:11:33;16.30;99.90
57088;DHT22;42965;52.846;6.614;2023-05-10T16:14:00;16.30;99.90
57088;DHT22;42965;52.846;6.614;2023-05-10T16:16:26;16.30;99.90
57088;DHT22;42965;52.846;6.614;2023-05-10T16:18:52;16.30;99.90